sensor_id;sensor_type;location;lat;lon;timestamp;P1;durP1;ratioP1;P2;durP2;ratioP2
52512;SDS011;38422;53.172;6.974;2022-09-09T00:01:46;6.90;;;5.47;;
52512;SDS011;38422;53.172;6.974;2022-09-09T00:04:58;9.65;;;6.07;;
52512;SDS011;38422;53.172;6.974;2022-09-09T00:07:27;8.38;;;6.45;;
52512;SDS011;38422;53.172;6.974;2022-09-09T00:10:28;9.48;;;5.82;;
52512;SDS011;38422;53.172;6.974;2022-09-09T00:15:43;8.50;;;5.60;;
52512;SDS011;38422;53.172;6.974;2022-09-09T00:18:46;9.65;;;5.80;;
52512;SDS011;38422;53.172;6.974;2022-09-09T00:21:23;9.07;;;5.80;;
52512;SDS011;38422;53.172;6.974;2022-09-09T00:24:00;8.45;;;5.53;;
52512;SDS011;38422;53.172;6.974;2022-09-09T00:26:48;8.88;;;5.70;;
52512;SDS011;38422;53.172;6.974;2022-09-09T00:32:18;8.75;;;6.05;;
52512;SDS011;38422;53.172;6.974;2022-09-09T00:34:55;9.13;;;5.77;;
52512;SDS011;38422;53.172;6.974;2022-09-09T00:37:41;10.43;;;6.10;;
52512;SDS011;38422;53.172;6.974;2022-09-09T00:40:17;7.47;;;5.70;;
52512;SDS011;38422;53.172;6.974;2022-09-09T00:42:59;9.13;;;5.68;;
52512;SDS011;38422;53.172;6.974;2022-09-09T00:46:01;10.00;;;5.90;;
52512;SDS011;38422;53.172;6.974;2022-09-09T00:51:22;7.95;;;6.03;;
52512;SDS011;38422;53.172;6.974;2022-09-09T00:59:32;9.50;;;6.20;;
52512;SDS011;38422;53.172;6.974;2022-09-09T01:02:25;9.02;;;6.07;;
52512;SDS011;38422;53.172;6.974;2022-09-09T01:04:51;9.13;;;6.22;;
52512;SDS011;38422;53.172;6.974;2022-09-09T01:07:18;8.63;;;5.65;;
52512;SDS011;38422;53.172;6.974;2022-09-09T01:09:57;8.73;;;6.33;;
52512;SDS011;38422;53.172;6.974;2022-09-09T01:12:25;7.90;;;6.22;;
52512;SDS011;38422;53.172;6.974;2022-09-09T01:15:08;7.78;;;5.93;;
52512;SDS011;38422;53.172;6.974;2022-09-09T01:20:15;8.25;;;5.85;;
52512;SDS011;38422;53.172;6.974;2022-09-09T01:28:42;10.25;;;5.95;;
52512;SDS011;38422;53.172;6.974;2022-09-09T01:31:26;8.70;;;5.95;;
52512;SDS011;38422;53.172;6.974;2022-09-09T01:34:04;8.52;;;5.95;;
52512;SDS011;38422;53.172;6.974;2022-09-09T01:39:09;10.00;;;6.90;;
52512;SDS011;38422;53.172;6.974;2022-09-09T01:41:36;9.13;;;6.05;;
52512;SDS011;38422;53.172;6.974;2022-09-09T01:44:02;8.40;;;6.25;;
52512;SDS011;38422;53.172;6.974;2022-09-09T01:46:28;9.03;;;5.87;;
52512;SDS011;38422;53.172;6.974;2022-09-09T01:48:54;10.00;;;5.90;;
52512;SDS011;38422;53.172;6.974;2022-09-09T01:51:21;9.80;;;6.13;;
52512;SDS011;38422;53.172;6.974;2022-09-09T01:53:47;8.07;;;5.60;;
52512;SDS011;38422;53.172;6.974;2022-09-09T02:06:59;7.78;;;6.15;;
52512;SDS011;38422;53.172;6.974;2022-09-09T02:09:25;8.40;;;6.28;;
52512;SDS011;38422;53.172;6.974;2022-09-09T02:12:16;8.60;;;5.88;;
52512;SDS011;38422;53.172;6.974;2022-09-09T02:14:45;8.90;;;6.40;;
52512;SDS011;38422;53.172;6.974;2022-09-09T02:17:16;8.43;;;5.60;;
52512;SDS011;38422;53.172;6.974;2022-09-09T02:19:49;11.63;;;6.00;;
52512;SDS011;38422;53.172;6.974;2022-09-09T02:22:20;9.88;;;6.18;;
52512;SDS011;38422;53.172;6.974;2022-09-09T02:24:49;9.85;;;5.75;;
52512;SDS011;38422;53.172;6.974;2022-09-09T02:27:18;9.90;;;6.22;;
52512;SDS011;38422;53.172;6.974;2022-09-09T02:29:46;7.55;;;5.60;;
52512;SDS011;38422;53.172;6.974;2022-09-09T02:32:15;11.07;;;5.75;;
52512;SDS011;38422;53.172;6.974;2022-09-09T02:34:55;8.32;;;5.45;;
52512;SDS011;38422;53.172;6.974;2022-09-09T02:37:26;10.45;;;5.60;;
52512;SDS011;38422;53.172;6.974;2022-09-09T02:39:57;9.23;;;5.60;;
52512;SDS011;38422;53.172;6.974;2022-09-09T02:42:22;9.68;;;5.43;;
52512;SDS011;38422;53.172;6.974;2022-09-09T02:44:49;9.77;;;5.47;;
52512;SDS011;38422;53.172;6.974;2022-09-09T02:55:32;9.43;;;4.85;;
52512;SDS011;38422;53.172;6.974;2022-09-09T02:58:03;8.13;;;4.90;;
52512;SDS011;38422;53.172;6.974;2022-09-09T03:00:32;9.88;;;5.38;;
52512;SDS011;38422;53.172;6.974;2022-09-09T03:02:58;7.18;;;4.70;;
52512;SDS011;38422;53.172;6.974;2022-09-09T03:05:24;7.53;;;5.20;;
52512;SDS011;38422;53.172;6.974;2022-09-09T03:07:50;7.50;;;4.47;;
52512;SDS011;38422;53.172;6.974;2022-09-09T03:10:16;8.70;;;4.82;;
52512;SDS011;38422;53.172;6.974;2022-09-09T03:12:42;7.10;;;4.53;;
52512;SDS011;38422;53.172;6.974;2022-09-09T03:15:08;8.70;;;5.40;;
52512;SDS011;38422;53.172;6.974;2022-09-09T03:17:35;8.05;;;4.78;;
52512;SDS011;38422;53.172;6.974;2022-09-09T03:20:01;10.25;;;4.68;;
52512;SDS011;38422;53.172;6.974;2022-09-09T03:22:28;7.85;;;4.78;;
52512;SDS011;38422;53.172;6.974;2022-09-09T03:24:53;7.80;;;4.88;;
52512;SDS011;38422;53.172;6.974;2022-09-09T03:27:19;8.93;;;4.70;;
52512;SDS011;38422;53.172;6.974;2022-09-09T03:29:45;9.75;;;5.32;;
52512;SDS011;38422;53.172;6.974;2022-09-09T03:32:11;8.95;;;5.50;;
52512;SDS011;38422;53.172;6.974;2022-09-09T03:34:37;7.30;;;4.88;;
52512;SDS011;38422;53.172;6.974;2022-09-09T03:37:07;10.23;;;6.05;;
52512;SDS011;38422;53.172;6.974;2022-09-09T03:39:32;10.77;;;5.18;;
52512;SDS011;38422;53.172;6.974;2022-09-09T03:41:58;11.13;;;5.32;;
52512;SDS011;38422;53.172;6.974;2022-09-09T03:44:24;9.50;;;4.70;;
52512;SDS011;38422;53.172;6.974;2022-09-09T03:46:49;8.73;;;4.63;;
52512;SDS011;38422;53.172;6.974;2022-09-09T03:49:15;8.57;;;4.40;;
52512;SDS011;38422;53.172;6.974;2022-09-09T03:51:41;8.55;;;4.88;;
52512;SDS011;38422;53.172;6.974;2022-09-09T03:54:07;8.90;;;5.07;;
52512;SDS011;38422;53.172;6.974;2022-09-09T03:56:35;8.95;;;4.38;;
52512;SDS011;38422;53.172;6.974;2022-09-09T03:59:01;7.40;;;3.72;;
52512;SDS011;38422;53.172;6.974;2022-09-09T04:01:27;9.05;;;3.95;;
52512;SDS011;38422;53.172;6.974;2022-09-09T04:03:53;6.97;;;3.83;;
52512;SDS011;38422;53.172;6.974;2022-09-09T04:06:20;8.02;;;3.92;;
52512;SDS011;38422;53.172;6.974;2022-09-09T04:08:46;7.18;;;3.83;;
52512;SDS011;38422;53.172;6.974;2022-09-09T04:11:14;6.97;;;3.40;;
52512;SDS011;38422;53.172;6.974;2022-09-09T04:13:41;6.40;;;3.17;;
52512;SDS011;38422;53.172;6.974;2022-09-09T04:16:07;6.90;;;3.28;;
52512;SDS011;38422;53.172;6.974;2022-09-09T04:18:34;7.20;;;3.22;;
52512;SDS011;38422;53.172;6.974;2022-09-09T04:21:00;5.53;;;3.10;;
52512;SDS011;38422;53.172;6.974;2022-09-09T04:23:26;5.20;;;3.10;;
52512;SDS011;38422;53.172;6.974;2022-09-09T04:25:57;6.78;;;3.20;;
52512;SDS011;38422;53.172;6.974;2022-09-09T04:28:25;5.78;;;2.80;;
52512;SDS011;38422;53.172;6.974;2022-09-09T04:30:53;5.50;;;3.05;;
52512;SDS011;38422;53.172;6.974;2022-09-09T04:33:19;7.60;;;3.60;;
52512;SDS011;38422;53.172;6.974;2022-09-09T04:35:45;6.00;;;2.95;;
52512;SDS011;38422;53.172;6.974;2022-09-09T04:38:13;6.45;;;3.30;;
52512;SDS011;38422;53.172;6.974;2022-09-09T04:40:41;5.32;;;2.67;;
52512;SDS011;38422;53.172;6.974;2022-09-09T04:43:14;7.88;;;3.45;;
52512;SDS011;38422;53.172;6.974;2022-09-09T04:45:43;6.75;;;3.13;;
52512;SDS011;38422;53.172;6.974;2022-09-09T04:48:12;5.75;;;3.13;;
52512;SDS011;38422;53.172;6.974;2022-09-09T04:50:39;5.40;;;2.88;;
52512;SDS011;38422;53.172;6.974;2022-09-09T04:53:05;6.20;;;3.20;;
52512;SDS011;38422;53.172;6.974;2022-09-09T04:55:31;5.15;;;3.25;;
52512;SDS011;38422;53.172;6.974;2022-09-09T04:58:02;6.13;;;3.38;;
52512;SDS011;38422;53.172;6.974;2022-09-09T05:00:32;5.70;;;3.42;;
52512;SDS011;38422;53.172;6.974;2022-09-09T05:03:03;6.47;;;3.13;;
52512;SDS011;38422;53.172;6.974;2022-09-09T05:05:31;5.65;;;3.35;;
52512;SDS011;38422;53.172;6.974;2022-09-09T05:08:02;5.43;;;3.78;;
52512;SDS011;38422;53.172;6.974;2022-09-09T05:10:29;5.85;;;3.70;;
52512;SDS011;38422;53.172;6.974;2022-09-09T05:12:55;6.82;;;4.03;;
52512;SDS011;38422;53.172;6.974;2022-09-09T05:15:21;8.15;;;4.60;;
52512;SDS011;38422;53.172;6.974;2022-09-09T05:17:47;6.47;;;4.60;;
52512;SDS011;38422;53.172;6.974;2022-09-09T05:20:12;7.68;;;4.70;;
52512;SDS011;38422;53.172;6.974;2022-09-09T05:22:38;6.88;;;4.53;;
52512;SDS011;38422;53.172;6.974;2022-09-09T05:25:04;7.82;;;4.35;;
52512;SDS011;38422;53.172;6.974;2022-09-09T05:27:29;7.50;;;4.40;;
52512;SDS011;38422;53.172;6.974;2022-09-09T05:29:58;7.03;;;4.43;;
52512;SDS011;38422;53.172;6.974;2022-09-09T05:32:23;6.28;;;3.85;;
52512;SDS011;38422;53.172;6.974;2022-09-09T05:34:49;5.97;;;3.97;;
52512;SDS011;38422;53.172;6.974;2022-09-09T05:37:16;6.32;;;3.85;;
52512;SDS011;38422;53.172;6.974;2022-09-09T05:39:42;6.18;;;3.83;;
52512;SDS011;38422;53.172;6.974;2022-09-09T05:42:07;9.50;;;4.00;;
52512;SDS011;38422;53.172;6.974;2022-09-09T05:44:33;6.47;;;3.90;;
52512;SDS011;38422;53.172;6.974;2022-09-09T05:46:59;6.15;;;3.97;;
52512;SDS011;38422;53.172;6.974;2022-09-09T05:49:24;7.60;;;3.92;;
52512;SDS011;38422;53.172;6.974;2022-09-09T05:51:50;5.60;;;3.42;;
52512;SDS011;38422;53.172;6.974;2022-09-09T05:54:16;6.45;;;3.80;;
52512;SDS011;38422;53.172;6.974;2022-09-09T05:56:42;9.27;;;4.30;;
52512;SDS011;38422;53.172;6.974;2022-09-09T05:59:08;8.07;;;3.70;;
52512;SDS011;38422;53.172;6.974;2022-09-09T06:01:35;6.10;;;3.40;;
52512;SDS011;38422;53.172;6.974;2022-09-09T06:04:05;5.57;;;3.72;;
52512;SDS011;38422;53.172;6.974;2022-09-09T06:06:32;5.07;;;3.40;;
52512;SDS011;38422;53.172;6.974;2022-09-09T06:09:01;5.97;;;3.70;;
52512;SDS011;38422;53.172;6.974;2022-09-09T06:11:29;7.22;;;3.47;;
52512;SDS011;38422;53.172;6.974;2022-09-09T06:13:56;5.45;;;3.42;;
52512;SDS011;38422;53.172;6.974;2022-09-09T06:16:23;4.80;;;3.50;;
52512;SDS011;38422;53.172;6.974;2022-09-09T06:18:50;5.97;;;3.45;;
52512;SDS011;38422;53.172;6.974;2022-09-09T06:23:47;5.07;;;3.60;;
52512;SDS011;38422;53.172;6.974;2022-09-09T06:26:17;6.55;;;3.80;;
52512;SDS011;38422;53.172;6.974;2022-09-09T06:28:48;5.82;;;3.25;;
52512;SDS011;38422;53.172;6.974;2022-09-09T06:31:15;4.78;;;3.60;;
52512;SDS011;38422;53.172;6.974;2022-09-09T06:33:42;6.00;;;3.63;;
52512;SDS011;38422;53.172;6.974;2022-09-09T06:36:11;6.90;;;3.88;;
52512;SDS011;38422;53.172;6.974;2022-09-09T06:38:38;6.93;;;3.95;;
52512;SDS011;38422;53.172;6.974;2022-09-09T06:41:04;5.10;;;3.65;;
52512;SDS011;38422;53.172;6.974;2022-09-09T06:43:31;7.85;;;3.70;;
52512;SDS011;38422;53.172;6.974;2022-09-09T06:45:57;6.70;;;4.00;;
52512;SDS011;38422;53.172;6.974;2022-09-09T06:48:28;7.10;;;4.10;;
52512;SDS011;38422;53.172;6.974;2022-09-09T06:51:01;6.70;;;4.07;;
52512;SDS011;38422;53.172;6.974;2022-09-09T06:53:31;9.80;;;4.53;;
52512;SDS011;38422;53.172;6.974;2022-09-09T06:58:36;6.65;;;3.90;;
52512;SDS011;38422;53.172;6.974;2022-09-09T07:01:09;7.72;;;4.20;;
52512;SDS011;38422;53.172;6.974;2022-09-09T07:03:40;5.72;;;4.30;;
52512;SDS011;38422;53.172;6.974;2022-09-09T07:08:34;5.75;;;4.07;;
52512;SDS011;38422;53.172;6.974;2022-09-09T07:11:03;6.32;;;4.53;;
52512;SDS011;38422;53.172;6.974;2022-09-09T07:13:30;5.70;;;4.07;;
52512;SDS011;38422;53.172;6.974;2022-09-09T07:16:15;6.18;;;3.97;;
52512;SDS011;38422;53.172;6.974;2022-09-09T07:18:42;6.10;;;4.10;;
52512;SDS011;38422;53.172;6.974;2022-09-09T07:21:10;5.93;;;3.70;;
52512;SDS011;38422;53.172;6.974;2022-09-09T07:23:37;5.45;;;4.00;;
52512;SDS011;38422;53.172;6.974;2022-09-09T07:26:13;7.20;;;4.28;;
52512;SDS011;38422;53.172;6.974;2022-09-09T07:28:44;5.32;;;3.58;;
52512;SDS011;38422;53.172;6.974;2022-09-09T07:31:17;6.80;;;4.15;;
52512;SDS011;38422;53.172;6.974;2022-09-09T07:33:45;6.07;;;3.53;;
52512;SDS011;38422;53.172;6.974;2022-09-09T07:36:13;5.30;;;3.70;;
52512;SDS011;38422;53.172;6.974;2022-09-09T07:38:43;4.22;;;3.53;;
52512;SDS011;38422;53.172;6.974;2022-09-09T07:41:15;6.57;;;3.97;;
52512;SDS011;38422;53.172;6.974;2022-09-09T07:43:44;5.55;;;3.65;;
52512;SDS011;38422;53.172;6.974;2022-09-09T07:46:11;5.68;;;3.60;;
52512;SDS011;38422;53.172;6.974;2022-09-09T07:48:38;7.45;;;3.65;;
52512;SDS011;38422;53.172;6.974;2022-09-09T07:51:12;5.60;;;3.45;;
52512;SDS011;38422;53.172;6.974;2022-09-09T07:53:44;5.68;;;3.35;;
52512;SDS011;38422;53.172;6.974;2022-09-09T07:56:12;5.45;;;3.40;;
52512;SDS011;38422;53.172;6.974;2022-09-09T07:58:42;5.47;;;3.58;;
52512;SDS011;38422;53.172;6.974;2022-09-09T08:01:11;5.03;;;3.40;;
52512;SDS011;38422;53.172;6.974;2022-09-09T08:03:43;5.18;;;3.15;;
52512;SDS011;38422;53.172;6.974;2022-09-09T08:06:10;7.00;;;2.97;;
52512;SDS011;38422;53.172;6.974;2022-09-09T08:13:36;4.53;;;2.83;;
52512;SDS011;38422;53.172;6.974;2022-09-09T08:16:17;6.97;;;3.45;;
52512;SDS011;38422;53.172;6.974;2022-09-09T08:18:46;5.18;;;3.30;;
52512;SDS011;38422;53.172;6.974;2022-09-09T08:21:13;5.07;;;3.00;;
52512;SDS011;38422;53.172;6.974;2022-09-09T08:23:43;6.68;;;3.20;;
52512;SDS011;38422;53.172;6.974;2022-09-09T08:26:44;6.25;;;3.08;;
52512;SDS011;38422;53.172;6.974;2022-09-09T08:29:04;6.95;;;3.38;;
52512;SDS011;38422;53.172;6.974;2022-09-09T08:31:37;5.38;;;2.92;;
52512;SDS011;38422;53.172;6.974;2022-09-09T08:34:05;5.78;;;2.97;;
52512;SDS011;38422;53.172;6.974;2022-09-09T08:36:32;4.53;;;2.97;;
52512;SDS011;38422;53.172;6.974;2022-09-09T08:39:00;6.03;;;3.22;;
52512;SDS011;38422;53.172;6.974;2022-09-09T08:47:23;6.35;;;3.00;;
52512;SDS011;38422;53.172;6.974;2022-09-09T08:52:39;5.70;;;3.00;;
52512;SDS011;38422;53.172;6.974;2022-09-09T08:55:21;5.35;;;2.88;;
52512;SDS011;38422;53.172;6.974;2022-09-09T08:58:02;5.82;;;3.25;;
52512;SDS011;38422;53.172;6.974;2022-09-09T09:00:45;4.60;;;3.00;;
52512;SDS011;38422;53.172;6.974;2022-09-09T09:03:26;6.65;;;3.25;;
52512;SDS011;38422;53.172;6.974;2022-09-09T09:06:22;5.90;;;3.00;;
52512;SDS011;38422;53.172;6.974;2022-09-09T09:09:15;6.55;;;2.80;;
52512;SDS011;38422;53.172;6.974;2022-09-09T09:11:52;5.00;;;2.90;;
52512;SDS011;38422;53.172;6.974;2022-09-09T09:14:26;6.38;;;2.58;;
52512;SDS011;38422;53.172;6.974;2022-09-09T09:19:28;4.13;;;2.35;;
52512;SDS011;38422;53.172;6.974;2022-09-09T09:25:04;6.18;;;2.50;;
52512;SDS011;38422;53.172;6.974;2022-09-09T09:31:17;3.95;;;2.40;;
52512;SDS011;38422;53.172;6.974;2022-09-09T09:33:46;4.72;;;2.10;;
52512;SDS011;38422;53.172;6.974;2022-09-09T09:36:18;4.95;;;2.08;;
52512;SDS011;38422;53.172;6.974;2022-09-09T09:39:04;5.38;;;2.42;;
52512;SDS011;38422;53.172;6.974;2022-09-09T09:41:34;5.07;;;2.20;;
52512;SDS011;38422;53.172;6.974;2022-09-09T09:44:05;5.93;;;2.65;;
52512;SDS011;38422;53.172;6.974;2022-09-09T09:46:46;5.72;;;2.45;;
52512;SDS011;38422;53.172;6.974;2022-09-09T09:49:12;6.80;;;2.90;;
52512;SDS011;38422;53.172;6.974;2022-09-09T09:51:38;5.78;;;2.30;;
52512;SDS011;38422;53.172;6.974;2022-09-09T09:56:41;6.05;;;2.00;;
52512;SDS011;38422;53.172;6.974;2022-09-09T10:01:47;6.18;;;2.10;;
52512;SDS011;38422;53.172;6.974;2022-09-09T10:04:16;4.63;;;1.90;;
52512;SDS011;38422;53.172;6.974;2022-09-09T10:06:45;5.32;;;1.95;;
52512;SDS011;38422;53.172;6.974;2022-09-09T10:09:28;7.03;;;1.90;;
52512;SDS011;38422;53.172;6.974;2022-09-09T10:22:45;3.88;;;1.42;;
52512;SDS011;38422;53.172;6.974;2022-09-09T10:25:25;8.32;;;1.73;;
52512;SDS011;38422;53.172;6.974;2022-09-09T10:28:24;4.93;;;1.38;;
52512;SDS011;38422;53.172;6.974;2022-09-09T10:33:49;5.90;;;1.45;;
52512;SDS011;38422;53.172;6.974;2022-09-09T10:36:25;7.03;;;1.45;;
52512;SDS011;38422;53.172;6.974;2022-09-09T10:39:03;5.53;;;1.42;;
52512;SDS011;38422;53.172;6.974;2022-09-09T10:41:34;5.75;;;1.48;;
52512;SDS011;38422;53.172;6.974;2022-09-09T10:55:10;9.10;;;1.73;;
52512;SDS011;38422;53.172;6.974;2022-09-09T10:57:39;7.45;;;1.50;;
52512;SDS011;38422;53.172;6.974;2022-09-09T11:03:20;4.50;;;1.05;;
52512;SDS011;38422;53.172;6.974;2022-09-09T11:05:50;4.53;;;1.10;;
52512;SDS011;38422;53.172;6.974;2022-09-09T11:08:23;7.85;;;1.67;;
52512;SDS011;38422;53.172;6.974;2022-09-09T11:13:38;6.20;;;1.50;;
52512;SDS011;38422;53.172;6.974;2022-09-09T11:18:51;4.32;;;1.02;;
52512;SDS011;38422;53.172;6.974;2022-09-09T11:21:36;3.50;;;1.00;;
52512;SDS011;38422;53.172;6.974;2022-09-09T11:24:09;4.63;;;1.20;;
52512;SDS011;38422;53.172;6.974;2022-09-09T11:26:41;4.25;;;1.00;;
52512;SDS011;38422;53.172;6.974;2022-09-09T11:42:23;6.00;;;1.23;;
52512;SDS011;38422;53.172;6.974;2022-09-09T11:44:49;6.68;;;1.00;;
52512;SDS011;38422;53.172;6.974;2022-09-09T11:47:28;3.60;;;1.00;;
52512;SDS011;38422;53.172;6.974;2022-09-09T11:50:09;5.82;;;1.27;;
52512;SDS011;38422;53.172;6.974;2022-09-09T11:53:02;4.78;;;1.20;;
52512;SDS011;38422;53.172;6.974;2022-09-09T11:55:35;4.72;;;1.10;;
52512;SDS011;38422;53.172;6.974;2022-09-09T12:00:46;4.20;;;1.00;;
52512;SDS011;38422;53.172;6.974;2022-09-09T12:06:11;4.63;;;1.13;;
52512;SDS011;38422;53.172;6.974;2022-09-09T12:09:15;4.95;;;1.48;;
52512;SDS011;38422;53.172;6.974;2022-09-09T12:11:45;4.78;;;1.38;;
52512;SDS011;38422;53.172;6.974;2022-09-09T12:14:21;4.75;;;1.23;;
52512;SDS011;38422;53.172;6.974;2022-09-09T12:19:34;4.20;;;1.02;;
52512;SDS011;38422;53.172;6.974;2022-09-09T12:22:06;3.97;;;1.15;;
52512;SDS011;38422;53.172;6.974;2022-09-09T12:25:07;4.55;;;1.00;;
52512;SDS011;38422;53.172;6.974;2022-09-09T12:27:41;4.18;;;0.90;;
52512;SDS011;38422;53.172;6.974;2022-09-09T12:30:39;6.40;;;1.08;;
52512;SDS011;38422;53.172;6.974;2022-09-09T12:33:19;3.75;;;0.88;;
52512;SDS011;38422;53.172;6.974;2022-09-09T12:35:56;5.03;;;1.17;;
52512;SDS011;38422;53.172;6.974;2022-09-09T12:38:32;4.35;;;1.02;;
52512;SDS011;38422;53.172;6.974;2022-09-09T12:41:01;3.47;;;1.02;;
52512;SDS011;38422;53.172;6.974;2022-09-09T12:43:27;4.55;;;0.95;;
52512;SDS011;38422;53.172;6.974;2022-09-09T12:45:54;2.78;;;1.02;;
52512;SDS011;38422;53.172;6.974;2022-09-09T12:51:03;4.80;;;1.25;;
52512;SDS011;38422;53.172;6.974;2022-09-09T12:53:42;2.75;;;0.70;;
52512;SDS011;38422;53.172;6.974;2022-09-09T12:56:17;4.85;;;1.10;;
52512;SDS011;38422;53.172;6.974;2022-09-09T12:58:45;3.92;;;1.00;;
52512;SDS011;38422;53.172;6.974;2022-09-09T13:01:24;4.10;;;0.80;;
52512;SDS011;38422;53.172;6.974;2022-09-09T13:03:55;3.15;;;0.80;;
52512;SDS011;38422;53.172;6.974;2022-09-09T13:08:51;6.00;;;0.77;;
52512;SDS011;38422;53.172;6.974;2022-09-09T13:11:22;5.03;;;0.88;;
52512;SDS011;38422;53.172;6.974;2022-09-09T13:14:00;2.10;;;0.50;;
52512;SDS011;38422;53.172;6.974;2022-09-09T13:16:28;4.13;;;0.93;;
52512;SDS011;38422;53.172;6.974;2022-09-09T13:18:57;3.00;;;0.65;;
52512;SDS011;38422;53.172;6.974;2022-09-09T13:21:32;3.30;;;0.88;;
52512;SDS011;38422;53.172;6.974;2022-09-09T13:24:22;4.70;;;0.70;;
52512;SDS011;38422;53.172;6.974;2022-09-09T13:26:57;3.53;;;0.73;;
52512;SDS011;38422;53.172;6.974;2022-09-09T13:29:50;3.30;;;0.75;;
52512;SDS011;38422;53.172;6.974;2022-09-09T13:32:20;4.75;;;1.00;;
52512;SDS011;38422;53.172;6.974;2022-09-09T13:34:57;3.45;;;0.77;;
52512;SDS011;38422;53.172;6.974;2022-09-09T13:40:00;4.15;;;0.95;;
52512;SDS011;38422;53.172;6.974;2022-09-09T13:42:28;2.42;;;0.77;;
52512;SDS011;38422;53.172;6.974;2022-09-09T13:44:56;3.60;;;0.95;;
52512;SDS011;38422;53.172;6.974;2022-09-09T13:47:34;6.63;;;1.13;;
52512;SDS011;38422;53.172;6.974;2022-09-09T13:52:46;3.00;;;0.77;;
52512;SDS011;38422;53.172;6.974;2022-09-09T13:55:18;5.45;;;0.98;;
52512;SDS011;38422;53.172;6.974;2022-09-09T13:58:02;2.95;;;0.80;;
52512;SDS011;38422;53.172;6.974;2022-09-09T14:00:30;3.55;;;0.80;;
52512;SDS011;38422;53.172;6.974;2022-09-09T14:02:59;3.17;;;0.63;;
52512;SDS011;38422;53.172;6.974;2022-09-09T14:05:27;4.63;;;0.80;;
52512;SDS011;38422;53.172;6.974;2022-09-09T14:07:53;4.38;;;0.77;;
52512;SDS011;38422;53.172;6.974;2022-09-09T14:10:19;3.60;;;0.70;;
52512;SDS011;38422;53.172;6.974;2022-09-09T14:12:45;6.35;;;1.05;;
52512;SDS011;38422;53.172;6.974;2022-09-09T14:15:11;2.10;;;0.50;;
52512;SDS011;38422;53.172;6.974;2022-09-09T14:17:37;3.28;;;0.50;;
52512;SDS011;38422;53.172;6.974;2022-09-09T14:20:04;1.33;;;0.40;;
52512;SDS011;38422;53.172;6.974;2022-09-09T14:22:33;2.65;;;0.50;;
52512;SDS011;38422;53.172;6.974;2022-09-09T14:25:00;1.92;;;0.50;;
52512;SDS011;38422;53.172;6.974;2022-09-09T14:27:26;2.60;;;0.60;;
52512;SDS011;38422;53.172;6.974;2022-09-09T14:29:52;5.28;;;0.80;;
52512;SDS011;38422;53.172;6.974;2022-09-09T14:32:17;6.23;;;0.83;;
52512;SDS011;38422;53.172;6.974;2022-09-09T14:34:43;3.30;;;0.80;;
52512;SDS011;38422;53.172;6.974;2022-09-09T14:37:09;3.45;;;0.80;;
52512;SDS011;38422;53.172;6.974;2022-09-09T14:39:35;6.68;;;0.88;;
52512;SDS011;38422;53.172;6.974;2022-09-09T14:42:01;5.82;;;0.90;;
52512;SDS011;38422;53.172;6.974;2022-09-09T14:44:27;7.25;;;0.80;;
52512;SDS011;38422;53.172;6.974;2022-09-09T14:46:53;4.32;;;0.90;;
52512;SDS011;38422;53.172;6.974;2022-09-09T14:49:19;5.53;;;0.98;;
52512;SDS011;38422;53.172;6.974;2022-09-09T14:51:45;5.72;;;0.88;;
52512;SDS011;38422;53.172;6.974;2022-09-09T14:54:11;3.97;;;0.75;;
52512;SDS011;38422;53.172;6.974;2022-09-09T14:56:37;5.72;;;0.80;;
52512;SDS011;38422;53.172;6.974;2022-09-09T14:59:03;3.95;;;0.60;;
52512;SDS011;38422;53.172;6.974;2022-09-09T15:01:29;2.47;;;0.75;;
52512;SDS011;38422;53.172;6.974;2022-09-09T15:03:57;4.00;;;0.80;;
52512;SDS011;38422;53.172;6.974;2022-09-09T15:06:26;5.05;;;1.10;;
52512;SDS011;38422;53.172;6.974;2022-09-09T15:08:54;5.35;;;1.00;;
52512;SDS011;38422;53.172;6.974;2022-09-09T15:11:23;4.65;;;0.98;;
52512;SDS011;38422;53.172;6.974;2022-09-09T15:13:51;2.75;;;0.80;;
52512;SDS011;38422;53.172;6.974;2022-09-09T15:16:18;3.95;;;1.35;;
52512;SDS011;38422;53.172;6.974;2022-09-09T15:18:46;5.45;;;1.15;;
52512;SDS011;38422;53.172;6.974;2022-09-09T15:21:18;4.68;;;1.13;;
52512;SDS011;38422;53.172;6.974;2022-09-09T15:23:44;2.53;;;0.75;;
52512;SDS011;38422;53.172;6.974;2022-09-09T15:26:10;2.27;;;0.60;;
52512;SDS011;38422;53.172;6.974;2022-09-09T15:28:39;3.50;;;0.80;;
52512;SDS011;38422;53.172;6.974;2022-09-09T15:31:27;2.20;;;0.70;;
52512;SDS011;38422;53.172;6.974;2022-09-09T15:33:54;2.88;;;0.80;;
52512;SDS011;38422;53.172;6.974;2022-09-09T15:36:26;3.65;;;0.80;;
52512;SDS011;38422;53.172;6.974;2022-09-09T15:38:55;4.07;;;0.60;;
52512;SDS011;38422;53.172;6.974;2022-09-09T15:41:21;2.97;;;0.70;;
52512;SDS011;38422;53.172;6.974;2022-09-09T15:43:48;1.58;;;0.52;;
52512;SDS011;38422;53.172;6.974;2022-09-09T15:48:42;1.63;;;0.40;;
52512;SDS011;38422;53.172;6.974;2022-09-09T15:51:13;0.98;;;0.20;;
52512;SDS011;38422;53.172;6.974;2022-09-09T15:53:39;1.05;;;0.40;;
52512;SDS011;38422;53.172;6.974;2022-09-09T15:56:08;1.73;;;0.40;;
52512;SDS011;38422;53.172;6.974;2022-09-09T15:58:34;1.73;;;0.22;;
52512;SDS011;38422;53.172;6.974;2022-09-09T16:03:38;1.02;;;0.20;;
52512;SDS011;38422;53.172;6.974;2022-09-09T16:06:05;1.42;;;0.20;;
52512;SDS011;38422;53.172;6.974;2022-09-09T16:08:32;0.50;;;0.20;;
52512;SDS011;38422;53.172;6.974;2022-09-09T16:11:11;0.75;;;0.25;;
52512;SDS011;38422;53.172;6.974;2022-09-09T16:13:40;2.47;;;0.35;;
52512;SDS011;38422;53.172;6.974;2022-09-09T16:16:07;2.72;;;0.50;;
52512;SDS011;38422;53.172;6.974;2022-09-09T16:18:37;1.40;;;0.40;;
52512;SDS011;38422;53.172;6.974;2022-09-09T16:21:04;1.58;;;0.30;;
52512;SDS011;38422;53.172;6.974;2022-09-09T16:23:34;1.42;;;0.38;;
52512;SDS011;38422;53.172;6.974;2022-09-09T16:26:00;0.65;;;0.40;;
52512;SDS011;38422;53.172;6.974;2022-09-09T16:28:27;1.80;;;0.38;;
52512;SDS011;38422;53.172;6.974;2022-09-09T16:30:53;2.45;;;0.60;;
52512;SDS011;38422;53.172;6.974;2022-09-09T16:33:19;1.73;;;0.47;;
52512;SDS011;38422;53.172;6.974;2022-09-09T16:35:44;2.67;;;0.50;;
52512;SDS011;38422;53.172;6.974;2022-09-09T16:38:10;1.90;;;0.50;;
52512;SDS011;38422;53.172;6.974;2022-09-09T16:40:37;2.50;;;0.60;;
52512;SDS011;38422;53.172;6.974;2022-09-09T16:43:03;0.95;;;0.40;;
52512;SDS011;38422;53.172;6.974;2022-09-09T16:45:30;3.05;;;0.90;;
52512;SDS011;38422;53.172;6.974;2022-09-09T16:50:23;2.15;;;0.75;;
52512;SDS011;38422;53.172;6.974;2022-09-09T16:52:48;2.20;;;0.63;;
52512;SDS011;38422;53.172;6.974;2022-09-09T16:55:15;1.55;;;0.60;;
52512;SDS011;38422;53.172;6.974;2022-09-09T16:57:41;2.38;;;0.60;;
52512;SDS011;38422;53.172;6.974;2022-09-09T17:00:07;3.25;;;0.68;;
52512;SDS011;38422;53.172;6.974;2022-09-09T17:02:33;2.00;;;0.70;;
52512;SDS011;38422;53.172;6.974;2022-09-09T17:04:59;1.70;;;0.52;;
52512;SDS011;38422;53.172;6.974;2022-09-09T17:07:24;3.33;;;0.85;;
52512;SDS011;38422;53.172;6.974;2022-09-09T17:09:50;2.22;;;0.70;;
52512;SDS011;38422;53.172;6.974;2022-09-09T17:12:16;2.33;;;0.60;;
52512;SDS011;38422;53.172;6.974;2022-09-09T17:14:42;1.92;;;0.70;;
52512;SDS011;38422;53.172;6.974;2022-09-09T17:17:08;1.92;;;0.55;;
52512;SDS011;38422;53.172;6.974;2022-09-09T17:19:33;2.58;;;0.82;;
52512;SDS011;38422;53.172;6.974;2022-09-09T17:21:59;3.08;;;0.90;;
52512;SDS011;38422;53.172;6.974;2022-09-09T17:24:26;2.45;;;0.82;;
52512;SDS011;38422;53.172;6.974;2022-09-09T17:26:52;1.50;;;0.70;;
52512;SDS011;38422;53.172;6.974;2022-09-09T17:29:19;3.80;;;0.82;;
52512;SDS011;38422;53.172;6.974;2022-09-09T17:31:44;2.05;;;0.80;;
52512;SDS011;38422;53.172;6.974;2022-09-09T17:34:10;2.97;;;0.70;;
52512;SDS011;38422;53.172;6.974;2022-09-09T17:36:36;2.20;;;0.85;;
52512;SDS011;38422;53.172;6.974;2022-09-09T17:39:03;3.23;;;0.90;;
52512;SDS011;38422;53.172;6.974;2022-09-09T17:41:34;2.78;;;0.70;;